createdAt,value
2022-12-24T00:00:22.362Z,99648.91
2022-12-24T00:02:50.185Z,99653.25
2022-12-24T00:05:18.037Z,99649.72
2022-12-24T00:07:47.177Z,99652.41
2022-12-24T00:10:14.930Z,99654.28
2022-12-24T00:12:42.579Z,99655.97
2022-12-24T00:15:10.818Z,99658.88
2022-12-24T00:17:38.469Z,99665.06
2022-12-24T00:20:06.562Z,99674.22
2022-12-24T00:22:34.232Z,99662.63
2022-12-24T00:25:03.234Z,99665.53
2022-12-24T00:27:30.879Z,99671.72
2022-12-24T00:29:58.576Z,99666.59
2022-12-24T00:32:26.206Z,99669.28
2022-12-24T00:34:53.814Z,99664.91
2022-12-24T00:37:21.529Z,99661.41
2022-12-24T00:39:49.229Z,99672.19
2022-12-24T00:42:18.254Z,99665.16
2022-12-24T00:44:47.314Z,99662.47
2022-12-24T00:47:15.118Z,99658.97
2022-12-24T00:49:42.857Z,99656.25
2022-12-24T00:52:10.566Z,99653.56
2022-12-24T00:54:39.589Z,99641.13
2022-12-24T00:57:07.252Z,99645.69
2022-12-24T00:59:36.274Z,99639.50
2022-12-24T01:02:04.093Z,99633.84
2022-12-24T01:05:00.721Z,99628.47
2022-12-24T01:07:28.314Z,99633.84
2022-12-24T01:09:55.965Z,99641.94
2022-12-24T01:12:23.636Z,99637.41
2022-12-24T01:14:52.677Z,99642.78
2022-12-24T01:17:20.440Z,99638.22
2022-12-24T01:19:48.112Z,99625.78
2022-12-24T01:22:15.777Z,99630.13
2022-12-24T01:24:44.703Z,99628.47
2022-12-24T01:27:12.317Z,99626.63
2022-12-24T01:29:41.188Z,99624.97
2022-12-24T01:32:10.196Z,99619.56
2022-12-24T01:34:37.915Z,99614.44
2022-12-24T01:37:05.586Z,99615.47
2022-12-24T01:39:33.229Z,99625.41
2022-12-24T01:42:18.390Z,99624.59
2022-12-24T01:44:46.341Z,99620.03
2022-12-24T01:47:15.606Z,99618.38
2022-12-24T01:49:43.507Z,99609.47
2022-12-24T01:52:12.100Z,99612.16
2022-12-24T01:54:40.585Z,99607.00
2022-12-24T01:57:08.855Z,99609.72
2022-12-24T01:59:36.796Z,99597.31
2022-12-24T02:02:04.515Z,99601.84
2022-12-24T02:04:35.184Z,99608.06
2022-12-24T02:07:02.862Z,99618.00
2022-12-24T02:09:30.529Z,99620.47
2022-12-24T02:11:58.246Z,99622.13
2022-12-24T02:14:26.825Z,99642.63
2022-12-24T02:16:55.893Z,99642.63
2022-12-24T02:19:47.641Z,99638.28
2022-12-24T02:22:16.872Z,99637.25
2022-12-24T02:24:59.407Z,99639.94
2022-12-24T02:27:32.339Z,99656.94
2022-12-24T02:30:11.644Z,99662.31
2022-12-24T02:32:46.581Z,99671.22
2022-12-24T02:35:15.628Z,99659.84
2022-12-24T02:37:44.019Z,99660.88
2022-12-24T02:40:16.551Z,99668.97
2022-12-24T02:42:45.723Z,99668.16
2022-12-24T02:45:15.342Z,99681.63
2022-12-24T02:47:43.048Z,99673.53
2022-12-24T02:50:11.370Z,99668.38
2022-12-24T02:52:39.613Z,99674.81
2022-12-24T02:55:08.457Z,99687.22
2022-12-24T02:57:39.895Z,99679.38
2022-12-24T03:00:08.203Z,99666.72
2022-12-24T03:02:41.273Z,99669.41
2022-12-24T03:05:11.655Z,99670.44
2022-12-24T03:07:40.032Z,99678.53
2022-12-24T03:10:11.174Z,99677.50
2022-12-24T03:12:39.551Z,99678.53
2022-12-24T03:15:07.737Z,99676.06
2022-12-24T03:17:35.963Z,99672.13
2022-12-24T03:20:05.501Z,99681.84
2022-12-24T03:22:33.555Z,99679.13
2022-12-24T03:25:01.203Z,99671.06
2022-12-24T03:27:28.821Z,99671.06
2022-12-24T03:29:56.502Z,99661.09
2022-12-24T03:32:24.677Z,99646.81
2022-12-24T03:34:52.310Z,99634.16
2022-12-24T03:37:21.389Z,99624.25
2022-12-24T03:39:49.098Z,99616.16
2022-12-24T03:42:16.799Z,99628.56
2022-12-24T03:44:44.542Z,99631.47
2022-12-24T03:47:12.192Z,99648.69
2022-12-24T03:49:39.855Z,99659.69
2022-12-24T03:52:07.761Z,99664.03
2022-12-24T03:54:36.864Z,99665.91
2022-12-24T03:57:04.744Z,99648.09
2022-12-24T03:59:32.337Z,99644.56
2022-12-24T04:02:00.180Z,99647.25
2022-12-24T04:04:28.039Z,99661.78
2022-12-24T04:06:55.688Z,99671.50
2022-12-24T04:09:23.316Z,99677.09
2022-12-24T04:11:53.415Z,99683.34
2022-12-24T04:14:21.103Z,99685.19
2022-12-24T04:16:48.850Z,99689.75
2022-12-24T04:19:16.625Z,99693.28
2022-12-24T04:21:45.885Z,99700.53
2022-12-24T04:24:13.528Z,99695.16
2022-12-24T04:26:41.175Z,99690.81
2022-12-24T04:29:10.212Z,99695.16
2022-12-24T04:31:38.096Z,99696.81
2022-12-24T04:34:05.780Z,99703.00
2022-12-24T04:36:33.503Z,99708.16
2022-12-24T04:39:01.218Z,99699.25
2022-12-24T04:41:28.835Z,99704.66
2022-12-24T04:43:56.513Z,99702.78
2022-12-24T04:46:26.138Z,99705.47
2022-12-24T04:48:54.139Z,99700.09
2022-12-24T04:51:21.991Z,99701.13
2022-12-24T04:53:49.672Z,99700.09
2022-12-24T04:56:17.768Z,99700.09
2022-12-24T04:58:45.529Z,99692.25
2022-12-24T05:01:13.597Z,99693.28
2022-12-24T05:03:42.792Z,99688.72
2022-12-24T05:06:11.705Z,99684.38
2022-12-24T05:08:39.497Z,99673.59
2022-12-24T05:11:07.105Z,99678.16
2022-12-24T05:13:44.025Z,99682.72
2022-12-24T05:16:14.500Z,99683.56
2022-12-24T05:18:43.704Z,99680.03
2022-12-24T05:21:11.690Z,99686.44
2022-12-24T05:23:56.749Z,99681.06
2022-12-24T05:26:27.085Z,99684.59
2022-12-24T05:28:59.019Z,99685.63
2022-12-24T05:31:27.158Z,99681.06
2022-12-24T05:33:56.927Z,99680.25
2022-12-24T05:36:24.762Z,99681.06
2022-12-24T05:38:52.468Z,99679.22
2022-12-24T05:41:20.099Z,99668.22
2022-12-24T05:43:47.808Z,99658.50
2022-12-24T05:46:16.127Z,99658.25
2022-12-24T05:48:45.339Z,99662.81
2022-12-24T05:51:14.697Z,99667.19
2022-12-24T05:53:42.390Z,99669.88
2022-12-24T05:56:10.715Z,99670.69
2022-12-24T05:58:38.314Z,99675.25
2022-12-24T06:01:06.194Z,99681.66
2022-12-24T06:03:34.115Z,99673.59
2022-12-24T06:06:02.313Z,99678.78
2022-12-24T06:08:31.436Z,99679.81
2022-12-24T06:10:59.331Z,99691.41
2022-12-24T06:13:27.240Z,99700.53
2022-12-24T06:15:55.627Z,99705.91
2022-12-24T06:18:23.289Z,99704.88
2022-12-24T06:20:51.699Z,99708.41
2022-12-24T06:23:19.364Z,99724.56
2022-12-24T06:25:48.405Z,99722.91
2022-12-24T06:28:16.018Z,99720.00
2022-12-24T06:30:47.152Z,99725.38
2022-12-24T06:33:14.898Z,99741.53
2022-12-24T06:35:42.595Z,99744.22
2022-12-24T06:38:10.301Z,99769.28
2022-12-24T06:40:39.336Z,99773.88
2022-12-24T06:43:08.384Z,99773.88
2022-12-24T06:45:36.084Z,99779.25
2022-12-24T06:48:03.764Z,99780.88
2022-12-24T06:50:31.377Z,99786.88
2022-12-24T06:52:59.072Z,99786.88
2022-12-24T06:55:26.751Z,99794.97
2022-12-24T06:57:54.405Z,99794.97
2022-12-24T07:00:23.659Z,99796.63
2022-12-24T07:02:51.353Z,99802.03
2022-12-24T07:05:19.047Z,99807.41
2022-12-24T07:07:46.764Z,99807.63
2022-12-24T07:10:15.081Z,99805.75
2022-12-24T07:12:42.718Z,99813.81
2022-12-24T07:15:10.716Z,99816.53
2022-12-24T07:17:39.774Z,99822.72
2022-12-24T07:20:07.949Z,99821.91
2022-12-24T07:22:36.876Z,99827.28
2022-12-24T07:25:04.704Z,99818.41
2022-12-24T07:27:32.354Z,99817.56
2022-12-24T07:30:00.187Z,99824.59
2022-12-24T07:32:27.837Z,99832.69
2022-12-24T07:34:56.904Z,99827.28
2022-12-24T07:37:24.713Z,99827.28
2022-12-24T07:39:52.421Z,99837.25
2022-12-24T07:42:20.188Z,99833.75
2022-12-24T07:44:47.893Z,99838.06
2022-12-24T07:47:15.825Z,99831.88
2022-12-24T07:49:43.489Z,99836.19
2022-12-24T07:52:12.969Z,99823.56
2022-12-24T07:54:40.648Z,99834.34
2022-12-24T07:57:08.353Z,99846.75
2022-12-24T07:59:38.993Z,99830.59
2022-12-24T08:02:11.128Z,99840.31
2022-12-24T08:04:43.739Z,99838.44
2022-12-24T08:07:12.775Z,99842.19
2022-12-24T08:09:40.743Z,99850.06
2022-12-24T08:12:08.662Z,99853.78
2022-12-24T08:14:36.507Z,99853.78
2022-12-24T08:17:04.198Z,99845.72
2022-12-24T08:19:31.880Z,99840.31
2022-12-24T08:22:00.230Z,99830.59
2022-12-24T08:24:29.243Z,99829.78
2022-12-24T08:26:57.434Z,99836.00
2022-12-24T08:29:25.104Z,99836.00
2022-12-24T08:31:54.722Z,99829.78
2022-12-24T08:34:22.459Z,99836.00
2022-12-24T08:36:50.852Z,99836.00
2022-12-24T08:39:18.567Z,99843.84
2022-12-24T08:41:47.570Z,99844.69
2022-12-24T08:44:15.936Z,99846.75
2022-12-24T08:46:43.822Z,99844.69
2022-12-24T08:49:12.260Z,99833.91
2022-12-24T08:51:39.920Z,99829.34
2022-12-24T08:54:08.305Z,99834.72
2022-12-24T08:56:36.070Z,99836.38
2022-12-24T08:59:05.882Z,99838.84
2022-12-24T09:01:34.604Z,99837.78
2022-12-24T09:04:04.536Z,99843.19
2022-12-24T09:06:33.383Z,99841.31
2022-12-24T09:09:01.080Z,99834.06
2022-12-24T09:11:29.896Z,99826.00
2022-12-24T09:13:57.642Z,99822.44
2022-12-24T09:16:27.435Z,99836.78
2022-12-24T09:18:55.093Z,99828.06
2022-12-24T09:21:23.470Z,99830.78
2022-12-24T09:23:51.140Z,99836.16
2022-12-24T09:26:19.185Z,99842.56
2022-12-24T09:28:47.467Z,99847.97
2022-12-24T09:31:15.383Z,99857.91
2022-12-24T09:33:45.337Z,99862.47
2022-12-24T09:36:13.027Z,99867.88
2022-12-24T09:38:41.585Z,99873.25
2022-12-24T09:41:12.824Z,99862.47
2022-12-24T09:43:40.491Z,99871.63
2022-12-24T09:46:11.661Z,99872.44
2022-12-24T09:48:40.315Z,99867.88
2022-12-24T09:51:10.779Z,99876.78
2022-12-24T09:53:39.229Z,99881.13
2022-12-24T09:56:08.523Z,99883.84
2022-12-24T09:58:36.447Z,99875.75
2022-12-24T10:01:05.836Z,99882.78
2022-12-24T10:03:35.706Z,99891.47
2022-12-24T10:06:07.744Z,99889.81
2022-12-24T10:08:39.995Z,99897.69
2022-12-24T10:11:09.717Z,99900.38
2022-12-24T10:13:41.143Z,99905.75
2022-12-24T10:16:11.148Z,99904.72
2022-12-24T10:18:44.230Z,99903.88
2022-12-24T10:21:16.790Z,99904.72
2022-12-24T10:23:47.786Z,99893.94
2022-12-24T10:26:17.716Z,99904.72
2022-12-24T10:28:46.119Z,99900.38
2022-12-24T10:31:13.922Z,99903.06
2022-12-24T10:33:42.996Z,99908.66
2022-12-24T10:36:12.457Z,99911.34
2022-12-24T10:38:40.948Z,99914.06
2022-12-24T10:41:09.983Z,99914.06
2022-12-24T10:43:38.264Z,99917.59
2022-12-24T10:46:06.457Z,99914.91
2022-12-24T10:48:37.748Z,99928.38
2022-12-24T10:51:05.971Z,99925.88
2022-12-24T10:53:35.378Z,99915.94
2022-12-24T10:56:04.381Z,99922.97
2022-12-24T10:58:33.453Z,99909.72
2022-12-24T11:01:01.914Z,99915.09
2022-12-24T11:03:30.811Z,99919.44
2022-12-24T11:06:01.645Z,99924.84
2022-12-24T11:08:29.382Z,99924.63
2022-12-24T11:10:58.209Z,99916.53
2022-12-24T11:13:37.434Z,99919.22
2022-12-24T11:16:09.009Z,99925.44
2022-12-24T11:18:37.623Z,99922.75
2022-12-24T11:21:06.333Z,99926.25
2022-12-24T11:23:34.051Z,99920.88
2022-12-24T11:26:01.796Z,99922.53
2022-12-24T11:28:30.601Z,99920.88
2022-12-24T11:30:59.439Z,99930.84
2022-12-24T11:33:29.559Z,99922.75
2022-12-24T11:36:02.286Z,99929.19
2022-12-24T11:38:30.967Z,99923.81
2022-12-24T11:40:59.898Z,99921.94
2022-12-24T11:43:45.881Z,99919.22
2022-12-24T11:46:17.881Z,99919.22
2022-12-24T11:48:47.743Z,99930.84
2022-12-24T11:51:22.164Z,99938.09
2022-12-24T11:53:51.225Z,99930.00
2022-12-24T11:56:22.419Z,99935.41
2022-12-24T11:58:53.155Z,99938.09
2022-12-24T12:01:24.001Z,99942.44
2022-12-24T12:03:55.487Z,99942.44
2022-12-24T12:06:27.395Z,99954.06
2022-12-24T12:08:57.843Z,99953.22
2022-12-24T12:11:25.663Z,99953.22
2022-12-24T12:13:53.413Z,99954.06
2022-12-24T12:16:23.906Z,99950.31
2022-12-24T12:18:54.239Z,99950.50
2022-12-24T12:21:23.788Z,99955.50
2022-12-24T12:23:52.112Z,99950.91
2022-12-24T12:26:21.869Z,99951.75
2022-12-24T12:28:50.585Z,99944.72
2022-12-24T12:31:21.181Z,99952.34
2022-12-24T12:33:49.619Z,99953.38
2022-12-24T12:36:19.756Z,99952.56
2022-12-24T12:38:48.883Z,99954.44
2022-12-24T12:41:21.255Z,99953.63
2022-12-24T12:44:10.279Z,99943.88
2022-12-24T12:46:39.978Z,99952.81
2022-12-24T12:49:12.086Z,99956.53
2022-12-24T12:51:43.028Z,99963.78
2022-12-24T12:54:16.024Z,99965.66
2022-12-24T12:56:44.580Z,99971.88
2022-12-24T12:59:13.946Z,99987.22
2022-12-24T13:01:45.087Z,99987.22
2022-12-24T13:04:34.138Z,99994.25
2022-12-24T13:07:20.826Z,99998.81
2022-12-24T13:09:54.919Z,100006.28
2022-12-24T13:12:30.966Z,100014.16
2022-12-24T13:15:13.627Z,100011.66
2022-12-24T13:17:45.353Z,100007.09
2022-12-24T13:20:18.907Z,100014.16
2022-12-24T13:22:56.160Z,100015.78
2022-12-24T13:25:27.492Z,100011.22
2022-12-24T13:27:55.879Z,100014.78
2022-12-24T13:30:33.756Z,100015.78
2022-12-24T13:33:02.122Z,100020.16
2022-12-24T13:35:39.959Z,100015.78
2022-12-24T13:38:28.070Z,100016.41
2022-12-24T13:40:57.069Z,100026.56
2022-12-24T13:43:24.773Z,100041.91
2022-12-24T13:45:53.197Z,100037.59
2022-12-24T13:48:27.097Z,100032.41
2022-12-24T13:50:55.711Z,100020.56
2022-12-24T13:53:23.903Z,100012.50
2022-12-24T13:55:53.252Z,100028.66
2022-12-24T13:58:22.364Z,100044.00
2022-12-24T14:00:55.081Z,100054.78
2022-12-24T14:03:27.186Z,100056.66
2022-12-24T14:05:57.579Z,100053.94
2022-12-24T14:08:35.918Z,100057.69
2022-12-24T14:11:05.846Z,100064.72
2022-12-24T14:13:53.864Z,100067.44
2022-12-24T14:16:22.477Z,100068.47
2022-12-24T14:18:51.400Z,100075.50
2022-12-24T14:21:19.695Z,100089.19
2022-12-24T14:23:51.518Z,100084.66
2022-12-24T14:26:19.963Z,100086.50
2022-12-24T14:28:49.390Z,100084.66
2022-12-24T14:31:18.903Z,100072.81
2022-12-24T14:33:48.625Z,100068.25
2022-12-24T14:36:16.894Z,100085.22
2022-12-24T14:38:44.761Z,100079.66
2022-12-24T14:41:17.185Z,100073.44
2022-12-24T14:43:48.246Z,100079.66
2022-12-24T14:46:17.808Z,100086.91
2022-12-24T14:48:48.572Z,100090.41
2022-12-24T14:51:19.852Z,100098.72
2022-12-24T14:53:51.630Z,100102.47
2022-12-24T14:56:20.586Z,100099.75
2022-12-24T14:58:48.280Z,100107.03
2022-12-24T15:01:24.124Z,100116.97
2022-12-24T15:04:04.218Z,100118.63
2022-12-24T15:06:33.720Z,100129.41
2022-12-24T15:09:01.423Z,100123.19
2022-12-24T15:11:29.067Z,100131.47
2022-12-24T15:13:57.782Z,100131.47
2022-12-24T15:16:26.224Z,100140.59
2022-12-24T15:18:55.375Z,100132.28
2022-12-24T15:21:25.664Z,100128.78
2022-12-24T15:23:54.218Z,100123.38
2022-12-24T15:26:26.452Z,100129.84
2022-12-24T15:29:02.302Z,100128.16
2022-12-24T15:31:32.068Z,100129.00
2022-12-24T15:34:01.073Z,100140.59
2022-12-24T15:50:51.013Z,100160.69
2022-12-24T15:53:22.134Z,100165.25
2022-12-24T15:56:00.543Z,100166.06
2022-12-24T15:58:30.031Z,100162.56
2022-12-24T16:01:04.505Z,100173.34
2022-12-24T16:03:33.052Z,100194.06
2022-12-24T16:31:59.302Z,100217.94
2022-12-24T16:34:28.460Z,100227.84
2022-12-24T17:08:49.081Z,100236.38
2022-12-24T17:11:18.113Z,100240.69
2022-12-24T17:13:45.713Z,100241.75
2022-12-24T17:16:16.186Z,100239.25
2022-12-24T17:18:43.908Z,100245.69
2022-12-24T17:24:46.034Z,100247.56
2022-12-24T17:27:13.791Z,100243.00
2022-12-24T17:29:43.170Z,100253.78
2022-12-24T17:32:10.829Z,100256.47
2022-12-24T17:34:39.437Z,100260.19
2022-12-24T17:47:52.092Z,100281.75
2022-12-24T17:50:20.439Z,100283.59
2022-12-24T18:10:22.306Z,100301.66
2022-12-24T18:12:51.460Z,100293.56
2022-12-24T18:15:19.534Z,100307.84
2022-12-24T18:17:51.606Z,100308.09
2022-12-24T18:20:20.435Z,100304.34
2022-12-24T18:22:49.035Z,100297.31
2022-12-24T18:25:16.855Z,100297.31
2022-12-24T18:27:46.603Z,100301.03
2022-12-24T18:30:14.892Z,100314.50
2022-12-24T18:32:43.214Z,100307.22
2022-12-24T18:35:10.982Z,100313.47
2022-12-24T18:44:48.210Z,100325.28
2022-12-24T18:47:16.736Z,100325.50
2022-12-24T18:49:44.421Z,100330.66
2022-12-24T19:10:08.237Z,100321.75
2022-12-24T19:12:38.361Z,100328.81
2022-12-24T19:15:06.415Z,100329.63
2022-12-24T19:17:35.892Z,100337.50
2022-12-24T19:20:03.535Z,100346.63
2022-12-24T19:26:26.145Z,100360.09
2022-12-24T19:28:56.361Z,100365.47
2022-12-24T19:31:25.006Z,100376.47
2022-12-24T19:33:53.962Z,100377.31
2022-12-24T19:36:22.033Z,100377.50
2022-12-24T19:39:09.226Z,100377.50
2022-12-24T19:41:36.944Z,100375.66
2022-12-24T19:44:06.059Z,100376.69
2022-12-24T19:46:34.840Z,100385.38
2022-12-24T19:49:05.096Z,100391.81
2022-12-24T19:51:33.487Z,100395.53
2022-12-24T20:15:16.229Z,100404.25
2022-12-24T20:17:44.391Z,100408.59
2022-12-24T20:20:12.302Z,100408.59
2022-12-24T20:33:18.170Z,100413.16
2022-12-24T20:35:45.857Z,100411.28
2022-12-24T21:06:32.156Z,100420.84
2022-12-24T21:20:01.315Z,100435.13
2022-12-24T21:40:08.320Z,100429.56
2022-12-24T21:42:37.350Z,100436.78
2022-12-24T21:45:05.108Z,100438.66
2022-12-24T21:47:33.500Z,100437.81
2022-12-24T21:50:18.743Z,100442.38
2022-12-24T22:00:29.699Z,100455.88
2022-12-24T22:02:58.715Z,100462.28
2022-12-24T22:05:27.105Z,100470.34
2022-12-24T22:08:22.124Z,100476.78
2022-12-24T22:11:07.067Z,100474.28
2022-12-24T22:13:35.432Z,100477.19
2022-12-24T22:16:04.641Z,100474.50
2022-12-24T22:18:32.950Z,100477.19
2022-12-24T22:21:02.613Z,100475.56
2022-12-24T22:59:28.941Z,100484.66
2022-12-24T23:01:58.277Z,100482.19
2022-12-24T23:04:27.293Z,100484.03
2022-12-24T23:06:55.018Z,100485.06
2022-12-24T23:09:26.485Z,100481.31
2022-12-24T23:11:54.143Z,100486.72
2022-12-24T23:14:40.285Z,100485.06
2022-12-24T23:17:09.395Z,100485.06
2022-12-24T23:19:37.479Z,100485.25
2022-12-24T23:22:06.215Z,100485.06
2022-12-24T23:32:15.780Z,100492.50
2022-12-24T23:34:45.192Z,100495.22
2022-12-24T23:37:12.802Z,100490.88
2022-12-24T23:40:18.669Z,100488.81
2022-12-24T23:42:46.433Z,100501.22
2022-12-24T23:45:14.606Z,100508.25
2022-12-24T23:47:43.467Z,100510.97
2022-12-24T23:50:12.617Z,100516.16
2022-12-24T23:52:40.248Z,100517.22
2022-12-24T23:59:04.959Z,100518.84
